Briefing drone pour Le pouzin

Rechercher une autre localisation

Conditions de vol :


Nous sommes le : Mercredi 20 janvier 2021
Il est 09:32 UTC (10:32 LT)

Lever de soleil : 06:44 UTC (07:44 LT)
Coucher de soleil : 16:59 UTC (17:59 LT)

Météo

L'essentiel des conditions de vol

VIGILANCE MÉTÉO FRANCE - Ardèche (07)
Vigilance Jaune : Pluie-inondation
CARTES DES FRONTS
METAR de LFLU
LFLU 200900Z AUTO 18019KT 9999 FEW044 SCT056 BKN068 11/05 Q1013

Date d'émission: 20/01/2021
Heure d'émission: 09:00 UTC
Vent: 180° pour 19 KT (35 km/h)
Visibilité horizontale: > 10 km
Plafond :
- Peu de nuages à 4400ft (1341m)
- Nuages épars à 5600ft (1707m)
- Nuages morcelés à 6800ft (2073m)
Température: 11 °C
Point de rosée: 5 °C
Humidité: 67%
Pression (QNH): 1013 hPa
Prévision 24h pour Valence (15 km)
Vent : 203° pour 3 KT (11 km/h)
Temperature Maxi: 7 °C
Temperature Min: 7 °C
Humidité : 82%
Condition : Nuageux



Warning: count(): Parameter must be an array or an object that implements Countable in /homepages/6/d509196549/htdocs/droneoxygene/briefing.php on line 743
WEBCAM POUR LE POUZIN

Réglementation

Voler en sécurité

CARTES AERONAUTIQUE 1/500.000
CARTES VAC (LFLU)
SUP AIP




Chargement des AIP...
NOTAM (LE POUZIN + Terrain à proximité / FIR )




Chargement des NOTAMS...
CONTACT PREFECTURE 07


Avertissement : Les données mises à disposition sont indicatives. Oxygène Drone ne pourra être tenu responsable de dégâts causés aux biens et aux personnes.